Meridian, Idaho
Current Conditions -  °F | °C
As of 5:35 AM on Friday 31 Oct 2014 (Local Time) from KMAN Reporting Station
Clear Clear  
Wind Chill: 55°   Ceiling: Unl
Heat Index: 55°   Visibility: 10mi
Dew Point: 32°   Wind: 3mph
Humidity: 41%   Direction: 230°SW
Pressure: 29.8"   Gusts: NA
Location:  43.61°N, 116.39°W
Report Text: KMAN 311135Z AUTO 23003KT 10SM CLR 13/00 A2980 RMK AO1
Loading
Personal Weather Stations






























Interactive Weather Map
Tropical Storm Tracking
New forecast layout! Learn more

10-Day Weather Forecast

Advertisements
Track Severe Weather on mobile